Time;durP1;ratioP1;P1;durP2;ratioP2;P2;SDS_P1;SDS_P2;PMS_P1;PMS_P2;Temp;Humidity;BMP_temperature;BMP_pressure;BME280_temperature;BME280_humidity;BME280_pressure;Samples;Min_cycle;Max_cycle;Signal;HPM_P1;HPM_P2
2023/03/11 00:02:02;;;;;;;7.25;1.45;;;2.60;99.90;;;;;;4866855;29;20049;-69
2023/03/11 00:04:27;;;;;;;9.55;1.50;;;2.60;99.90;;;;;;4866721;29;20041;-69
2023/03/11 00:06:53;;;;;;;10.45;1.30;;;2.50;99.90;;;;;;4866957;29;20061;-69
2023/03/11 00:09:19;;;;;;;7.03;0.85;;;2.50;99.90;;;;;;4866777;29;20038;-69
2023/03/11 00:11:44;;;;;;;5.25;1.05;;;2.40;99.90;;;;;;4866701;29;20042;-69
2023/03/11 00:14:10;;;;;;;8.63;0.90;;;2.40;99.90;;;;;;4866573;29;20376;-69
2023/03/11 00:16:36;;;;;;;7.35;1.30;;;2.40;99.90;;;;;;4866377;29;20041;-69
2023/03/11 00:19:01;;;;;;;7.07;0.90;;;2.40;99.90;;;;;;4866584;29;20049;-69
2023/03/11 00:21:27;;;;;;;6.80;1.00;;;2.40;99.90;;;;;;4866102;29;20344;-69
2023/03/11 00:23:53;;;;;;;8.63;0.95;;;2.30;99.90;;;;;;4865962;29;20062;-68
2023/03/11 00:26:18;;;;;;;5.38;0.95;;;2.30;99.90;;;;;;4866412;29;20029;-72
2023/03/11 00:28:44;;;;;;;10.23;1.58;;;2.40;99.90;;;;;;4866353;29;20504;-69
2023/03/11 00:31:12;;;;;;;9.30;1.23;;;2.40;99.90;;;;;;4866037;29;20046;-69
2023/03/11 00:33:38;;;;;;;3.60;0.57;;;2.50;99.90;;;;;;4866094;29;20056;-69
2023/03/11 00:36:05;;;;;;;7.72;0.90;;;2.40;99.90;;;;;;4866230;29;20086;-69
2023/03/11 00:38:31;;;;;;;6.95;1.08;;;2.40;99.90;;;;;;4849884;29;20057;-69
2023/03/11 00:41:00;;;;;;;6.18;0.82;;;2.40;99.90;;;;;;4866214;29;20068;-69
2023/03/11 00:43:26;;;;;;;8.13;1.17;;;2.40;99.90;;;;;;4865773;29;20475;-69
2023/03/11 00:45:51;;;;;;;11.20;1.23;;;2.40;99.90;;;;;;4865782;29;20080;-69
2023/03/11 00:48:17;;;;;;;4.60;1.35;;;2.50;99.90;;;;;;4849451;29;20106;-69
2023/03/11 00:50:43;;;;;;;8.05;0.80;;;2.40;99.90;;;;;;4865718;29;20048;-70
2023/03/11 00:53:09;;;;;;;4.15;0.80;;;2.50;99.90;;;;;;4897481;29;20118;-71
2023/03/11 00:55:35;;;;;;;9.00;1.17;;;2.50;99.90;;;;;;4902756;29;20068;-69
2023/03/11 00:58:03;;;;;;;10.20;1.25;;;2.50;99.90;;;;;;4903163;29;20079;-69
2023/03/11 01:00:30;;;;;;;10.57;1.15;;;2.50;99.90;;;;;;4903116;29;20028;-69
2023/03/11 01:02:55;;;;;;;4.80;1.55;;;2.50;99.90;;;;;;4902938;29;20096;-69
2023/03/11 01:05:24;;;;;;;5.28;0.90;;;2.60;99.90;;;;;;4903042;29;20049;-69
2023/03/11 01:07:50;;;;;;;16.20;1.25;;;2.70;99.90;;;;;;4902910;29;20043;-69
2023/03/11 01:10:17;;;;;;;5.15;0.90;;;2.80;99.90;;;;;;4902929;29;20335;-69
2023/03/11 01:12:42;;;;;;;6.15;0.93;;;2.70;99.90;;;;;;4902840;29;20037;-69
2023/03/11 01:15:15;;;;;;;5.00;1.05;;;2.60;99.90;;;;;;4902511;29;20043;-69
2023/03/11 01:17:41;;;;;;;9.05;1.00;;;2.60;99.90;;;;;;4902835;29;20308;-69
2023/03/11 01:20:08;;;;;;;7.57;0.70;;;2.60;99.90;;;;;;4902724;29;20040;-69
2023/03/11 01:22:34;;;;;;;5.07;0.60;;;2.60;99.90;;;;;;4900059;29;20103;-69
2023/03/11 01:25:00;;;;;;;10.32;0.80;;;2.50;99.90;;;;;;4902571;29;20076;-69
2023/03/11 01:27:27;;;;;;;5.70;1.02;;;2.50;99.90;;;;;;4902594;29;20060;-69
2023/03/11 01:29:52;;;;;;;7.75;0.70;;;2.60;99.90;;;;;;4902524;29;20045;-68
2023/03/11 01:32:18;;;;;;;5.65;0.90;;;2.70;99.90;;;;;;4885784;29;20450;-69
2023/03/11 01:34:44;;;;;;;6.15;0.95;;;2.70;99.90;;;;;;4901750;29;20124;-69
2023/03/11 01:37:09;;;;;;;7.90;0.73;;;2.70;99.90;;;;;;4902312;29;20055;-69
2023/03/11 01:39:35;;;;;;;7.90;1.60;;;2.70;99.90;;;;;;4902352;29;20090;-69
2023/03/11 01:42:01;;;;;;;4.60;0.80;;;2.50;99.90;;;;;;4902329;29;20041;-69
2023/03/11 01:44:26;;;;;;;3.05;0.98;;;2.40;99.90;;;;;;4885471;29;20044;-69
2023/03/11 01:46:52;;;;;;;7.50;0.98;;;2.40;99.90;;;;;;4902236;29;20044;-69
2023/03/11 01:49:22;;;;;;;5.72;0.93;;;2.50;99.90;;;;;;4902474;29;20112;-69
2023/03/11 01:51:51;;;;;;;4.90;0.70;;;2.50;99.90;;;;;;4901814;29;20049;-69
2023/03/11 01:54:26;;;;;;;4.70;0.98;;;2.40;99.90;;;;;;4902105;29;20058;-69
2023/03/11 01:56:53;;;;;;;5.20;1.05;;;2.50;99.90;;;;;;4902087;29;20131;-71
2023/03/11 01:59:23;;;;;;;7.03;0.80;;;2.50;99.90;;;;;;4901788;29;20462;-69
2023/03/11 02:02:12;;;;;;;7.75;0.88;;;2.60;99.90;;;;;;4885497;29;20383;-69
2023/03/11 02:04:39;;;;;;;3.40;0.73;;;2.40;99.90;;;;;;4901938;29;20044;-69
2023/03/11 02:07:07;;;;;;;6.97;1.00;;;2.40;99.90;;;;;;4901615;29;20044;-69
2023/03/11 02:09:33;;;;;;;5.38;0.70;;;2.30;99.90;;;;;;4901665;29;20128;-69
2023/03/11 02:11:58;;;;;;;5.75;0.80;;;2.30;99.90;;;;;;4901554;29;20128;-69
2023/03/11 02:14:27;;;;;;;9.38;0.70;;;2.30;99.90;;;;;;4901862;29;20049;-69
2023/03/11 02:16:54;;;;;;;1.90;0.50;;;2.40;99.90;;;;;;4885264;29;20115;-69
2023/03/11 02:19:45;;;;;;;7.95;1.67;;;2.60;99.90;;;;;;4901703;29;20048;-69
2023/03/11 02:22:12;;;;;;;5.55;0.73;;;2.70;99.90;;;;;;4901084;29;20502;-69
2023/03/11 02:24:46;;;;;;;2.45;0.30;;;2.50;99.90;;;;;;4901192;29;20430;-68
2023/03/11 02:27:15;;;;;;;6.10;0.60;;;2.50;99.90;;;;;;4884900;29;20388;-69
2023/03/11 02:29:42;;;;;;;7.10;0.90;;;2.40;99.90;;;;;;4884726;29;20052;-69
2023/03/11 02:32:09;;;;;;;2.03;0.52;;;2.40;99.90;;;;;;4901360;29;20053;-69
2023/03/11 02:34:38;;;;;;;4.78;0.63;;;2.30;99.90;;;;;;4901593;29;20111;-69
2023/03/11 02:37:09;;;;;;;9.63;0.57;;;2.40;99.90;;;;;;4901547;29;20051;-69
2023/03/11 02:39:40;;;;;;;8.25;0.93;;;2.30;99.90;;;;;;4901239;29;20044;-69
2023/03/11 02:42:13;;;;;;;3.15;0.65;;;2.20;99.90;;;;;;4884732;29;20049;-69
2023/03/11 02:44:42;;;;;;;3.92;0.47;;;2.20;99.90;;;;;;4901429;29;20054;-69
2023/03/11 02:47:09;;;;;;;2.55;0.30;;;2.00;99.90;;;;;;4901984;29;20032;-69
2023/03/11 02:49:35;;;;;;;4.40;0.68;;;2.10;99.90;;;;;;4905454;29;20047;-69
2023/03/11 02:52:01;;;;;;;6.68;0.50;;;2.10;99.90;;;;;;4905016;29;20099;-69
2023/03/11 02:54:27;;;;;;;3.92;0.60;;;2.10;99.90;;;;;;4905405;29;20041;-69
2023/03/11 02:56:53;;;;;;;4.28;0.65;;;2.10;99.90;;;;;;4905328;29;20040;-69
2023/03/11 02:59:18;;;;;;;2.47;0.60;;;2.10;99.90;;;;;;4905059;29;20451;-69
2023/03/11 03:01:44;;;;;;;5.35;0.70;;;2.10;99.90;;;;;;4904912;29;20040;-69
2023/03/11 03:04:10;;;;;;;2.75;0.40;;;2.10;99.90;;;;;;4905088;29;20052;-69
2023/03/11 03:06:36;;;;;;;5.80;0.45;;;2.20;99.90;;;;;;4905683;29;20465;-69
2023/03/11 03:09:01;;;;;;;3.38;0.57;;;2.30;99.90;;;;;;4905141;29;20335;-69
2023/03/11 03:11:27;;;;;;;0.77;0.35;;;2.40;99.90;;;;;;4904992;29;20419;-69
2023/03/11 03:13:53;;;;;;;1.77;0.35;;;2.40;99.90;;;;;;4904817;29;20040;-69
2023/03/11 03:16:18;;;;;;;1.55;0.50;;;2.50;99.90;;;;;;4904781;29;20049;-69
2023/03/11 03:18:44;;;;;;;3.00;0.40;;;2.50;99.90;;;;;;4904778;29;20041;-69
2023/03/11 03:21:10;;;;;;;2.88;0.50;;;2.50;99.90;;;;;;4904482;29;20083;-69
2023/03/11 03:23:36;;;;;;;4.22;0.63;;;2.50;99.90;;;;;;4903759;29;20060;-69
2023/03/11 03:26:03;;;;;;;1.60;0.40;;;2.50;99.90;;;;;;4904560;29;20041;-69
2023/03/11 03:28:29;;;;;;;2.78;0.52;;;2.50;99.90;;;;;;4904424;29;20047;-69
2023/03/11 03:31:01;;;;;;;2.72;0.50;;;2.50;99.90;;;;;;4904734;29;20036;-69
2023/03/11 03:33:27;;;;;;;3.38;0.40;;;2.40;99.90;;;;;;4904768;29;20127;-69
2023/03/11 03:35:53;;;;;;;2.80;0.30;;;2.30;99.90;;;;;;4904629;29;20128;-69
2023/03/11 03:38:18;;;;;;;4.13;0.57;;;2.30;99.90;;;;;;4904342;29;20083;-69
2023/03/11 03:40:47;;;;;;;4.90;0.60;;;2.30;99.90;;;;;;4904558;29;20055;-69
2023/03/11 03:43:13;;;;;;;2.95;0.32;;;2.20;99.90;;;;;;4904483;29;20119;-69
2023/03/11 03:45:38;;;;;;;3.05;0.50;;;2.20;99.90;;;;;;4904187;29;20517;-69
2023/03/11 03:48:05;;;;;;;3.67;0.32;;;2.00;99.90;;;;;;4904428;29;20084;-69
2023/03/11 03:50:30;;;;;;;3.70;0.43;;;1.90;99.90;;;;;;4904132;29;20047;-69
2023/03/11 03:52:56;;;;;;;3.35;0.52;;;1.80;99.90;;;;;;4887081;29;20040;-69
2023/03/11 03:55:22;;;;;;;2.67;0.43;;;1.80;99.90;;;;;;4904019;29;20060;-69
2023/03/11 03:57:47;;;;;;;3.28;0.57;;;1.80;99.90;;;;;;4903588;29;20037;-69
2023/03/11 04:00:14;;;;;;;2.30;0.47;;;1.80;99.90;;;;;;4904450;29;20096;-69
2023/03/11 04:02:40;;;;;;;2.05;0.50;;;1.70;99.90;;;;;;4903951;29;20044;-69
2023/03/11 04:05:06;;;;;;;4.78;0.60;;;1.50;99.90;;;;;;4904062;29;20041;-69
2023/03/11 04:07:34;;;;;;;3.85;0.52;;;1.50;99.90;;;;;;4903783;29;20080;-69
2023/03/11 04:10:00;;;;;;;0.70;0.30;;;1.40;99.90;;;;;;4904058;29;20097;-69
2023/03/11 04:12:26;;;;;;;2.72;0.45;;;1.50;99.90;;;;;;4904033;29;20367;-69
2023/03/11 04:14:52;;;;;;;2.25;0.43;;;1.50;99.90;;;;;;4903920;29;20052;-69
2023/03/11 04:17:17;;;;;;;4.50;1.00;;;1.50;99.90;;;;;;4903956;29;20096;-69
2023/03/11 04:19:43;;;;;;;2.38;0.47;;;1.40;99.90;;;;;;4903586;29;20152;-69
2023/03/11 04:22:09;;;;;;;3.30;0.40;;;1.40;99.90;;;;;;4903167;29;20044;-69
2023/03/11 04:24:35;;;;;;;3.58;0.32;;;1.30;99.90;;;;;;4903317;29;20053;-69
2023/03/11 04:27:00;;;;;;;1.40;0.35;;;1.30;99.90;;;;;;4903772;29;20056;-69
2023/03/11 04:29:26;;;;;;;3.53;0.47;;;1.20;99.90;;;;;;4903701;29;20355;-69
2023/03/11 04:31:52;;;;;;;2.08;0.20;;;1.30;99.90;;;;;;4903365;29;20077;-69
2023/03/11 04:34:17;;;;;;;1.25;0.50;;;1.20;99.90;;;;;;4903380;29;20045;-69
2023/03/11 04:36:43;;;;;;;3.22;0.50;;;1.30;99.90;;;;;;4903576;29;20044;-68
2023/03/11 04:39:09;;;;;;;2.60;0.40;;;1.30;99.90;;;;;;4903507;29;20363;-68
2023/03/11 04:41:35;;;;;;;2.15;0.40;;;1.20;99.90;;;;;;4903130;29;20044;-68
2023/03/11 04:44:01;;;;;;;6.25;0.50;;;1.20;99.90;;;;;;4903369;29;20056;-68
2023/03/11 04:46:26;;;;;;;2.72;0.50;;;1.20;99.90;;;;;;4903408;29;20044;-68
2023/03/11 04:48:52;;;;;;;2.80;0.52;;;1.20;99.90;;;;;;4903383;29;20044;-68
2023/03/11 04:51:18;;;;;;;3.65;0.63;;;1.00;99.90;;;;;;4903263;29;20047;-68
2023/03/11 04:53:43;;;;;;;4.07;0.40;;;0.90;99.90;;;;;;4902881;29;20060;-68
2023/03/11 04:56:09;;;;;;;4.43;0.60;;;1.00;99.90;;;;;;4903259;29;20047;-68
2023/03/11 04:58:35;;;;;;;3.38;0.40;;;1.00;99.90;;;;;;4902814;29;20044;-69
2023/03/11 05:01:00;;;;;;;6.20;0.70;;;1.00;99.90;;;;;;4903120;29;20136;-68
2023/03/11 05:03:26;;;;;;;2.08;0.40;;;1.00;99.90;;;;;;4886121;29;20052;-68
2023/03/11 05:05:55;;;;;;;1.48;0.30;;;1.10;99.90;;;;;;4902968;29;20044;-68
2023/03/11 05:08:22;;;;;;;3.97;0.45;;;1.20;99.90;;;;;;4902721;29;20077;-68
2023/03/11 05:10:47;;;;;;;2.90;0.50;;;1.20;99.90;;;;;;4901845;29;20454;-68
2023/03/11 05:13:13;;;;;;;3.78;0.50;;;1.30;99.90;;;;;;4902592;29;20048;-68
2023/03/11 05:15:38;;;;;;;2.50;0.52;;;1.20;99.90;;;;;;4902816;29;20032;-68
2023/03/11 05:18:04;;;;;;;2.30;0.40;;;1.20;99.90;;;;;;4902799;29;20045;-68
2023/03/11 05:20:31;;;;;;;2.08;0.30;;;1.20;99.90;;;;;;4902761;29;20036;-68
2023/03/11 05:22:57;;;;;;;3.17;0.40;;;1.20;99.90;;;;;;4900041;29;20096;-67
2023/03/11 05:25:23;;;;;;;1.95;0.30;;;1.20;99.90;;;;;;4902619;29;20085;-68
2023/03/11 05:27:48;;;;;;;2.50;0.40;;;1.20;99.90;;;;;;4902643;29;20045;-68
2023/03/11 05:30:14;;;;;;;1.60;0.40;;;1.00;99.90;;;;;;4902305;29;20086;-69
2023/03/11 05:32:40;;;;;;;2.80;0.40;;;1.00;99.90;;;;;;4902603;29;20127;-68
2023/03/11 05:35:06;;;;;;;1.50;0.60;;;0.90;99.90;;;;;;4885647;29;20316;-68
2023/03/11 05:37:32;;;;;;;4.97;0.60;;;0.90;99.90;;;;;;4902456;29;20116;-68
2023/03/11 05:39:58;;;;;;;2.60;0.57;;;0.90;99.90;;;;;;4902452;29;20383;-68
2023/03/11 05:42:24;;;;;;;5.13;0.57;;;0.90;99.90;;;;;;4902394;29;20080;-68
2023/03/11 05:44:49;;;;;;;4.07;0.65;;;0.80;99.90;;;;;;4902245;29;20123;-68
2023/03/11 05:47:16;;;;;;;1.08;0.35;;;0.80;99.90;;;;;;4902279;29;20092;-68
2023/03/11 05:49:42;;;;;;;7.43;0.80;;;0.80;99.90;;;;;;4902264;29;20388;-69
2023/03/11 05:52:08;;;;;;;5.45;0.73;;;0.80;99.90;;;;;;4901860;29;20471;-69
2023/03/11 05:54:34;;;;;;;4.00;0.60;;;0.80;99.90;;;;;;4885464;29;20044;-69
2023/03/11 05:56:59;;;;;;;3.08;0.40;;;0.80;99.90;;;;;;4902137;29;20154;-69
2023/03/11 05:59:25;;;;;;;6.22;0.50;;;0.80;99.90;;;;;;4902046;29;20132;-69
2023/03/11 06:01:51;;;;;;;3.38;0.50;;;0.80;99.90;;;;;;4902088;29;20115;-69
2023/03/11 06:04:17;;;;;;;3.50;0.73;;;0.80;99.90;;;;;;4901664;29;20041;-69
2023/03/11 06:06:42;;;;;;;3.58;0.50;;;0.80;99.90;;;;;;4885473;29;20119;-69
2023/03/11 06:09:12;;;;;;;5.75;0.60;;;0.80;99.90;;;;;;4901898;29;20037;-69
2023/03/11 06:11:38;;;;;;;7.47;1.10;;;0.80;99.90;;;;;;4901895;29;20044;-69
2023/03/11 06:14:04;;;;;;;2.13;0.50;;;0.80;99.90;;;;;;4901608;29;20048;-69
2023/03/11 06:16:29;;;;;;;2.40;0.68;;;0.80;99.90;;;;;;4901876;29;20040;-69
2023/03/11 06:18:59;;;;;;;7.57;0.80;;;0.80;99.90;;;;;;4901817;29;20041;-69
2023/03/11 06:21:25;;;;;;;2.42;0.40;;;0.90;99.90;;;;;;4901600;29;20051;-69
2023/03/11 06:23:52;;;;;;;4.97;1.05;;;0.90;99.90;;;;;;4900794;29;20462;-69
2023/03/11 06:26:19;;;;;;;0.98;0.45;;;0.90;99.90;;;;;;4901731;29;20037;-69
2023/03/11 06:28:46;;;;;;;2.47;0.80;;;1.00;99.90;;;;;;4884802;29;20320;-69
2023/03/11 06:31:29;;;;;;;3.05;0.50;;;1.00;99.90;;;;;;4901604;29;20127;-69
2023/03/11 06:33:55;;;;;;;4.63;0.50;;;1.00;99.90;;;;;;4901650;29;20044;-69
2023/03/11 06:36:21;;;;;;;3.75;0.63;;;1.00;99.90;;;;;;4901607;29;20036;-69
2023/03/11 06:38:48;;;;;;;1.65;0.40;;;1.10;99.90;;;;;;4901603;29;20048;-69
2023/03/11 06:41:15;;;;;;;3.40;0.80;;;1.00;99.90;;;;;;4901580;29;20083;-69
2023/03/11 06:43:40;;;;;;;1.73;0.50;;;1.10;99.90;;;;;;4901106;29;20519;-69
2023/03/11 06:46:12;;;;;;;3.47;0.65;;;1.10;99.90;;;;;;4901514;29;20089;-69
2023/03/11 06:48:38;;;;;;;7.00;0.90;;;1.10;99.90;;;;;;4884620;29;20041;-69
2023/03/11 06:51:04;;;;;;;4.07;0.75;;;1.10;99.90;;;;;;4901236;29;20100;-69
2023/03/11 06:53:29;;;;;;;5.75;0.60;;;1.20;99.90;;;;;;4901032;29;20057;-69
2023/03/11 06:56:10;;;;;;;6.03;0.65;;;1.10;99.90;;;;;;4901412;29;20040;-69
2023/03/11 06:58:38;;;;;;;7.35;0.73;;;1.10;99.90;;;;;;4901415;29;20108;-69
2023/03/11 07:01:13;;;;;;;2.97;0.60;;;1.10;99.90;;;;;;4901358;29;20063;-69
2023/03/11 07:03:39;;;;;;;4.43;0.52;;;1.10;99.90;;;;;;4901333;29;20044;-69
2023/03/11 07:06:05;;;;;;;2.03;0.60;;;1.20;99.90;;;;;;4901278;29;20423;-69
2023/03/11 07:08:31;;;;;;;2.42;0.57;;;1.20;99.90;;;;;;4901371;29;20037;-69
2023/03/11 07:11:00;;;;;;;5.03;0.60;;;1.30;99.90;;;;;;4901302;29;20059;-69
2023/03/11 07:13:26;;;;;;;3.50;0.60;;;1.30;99.90;;;;;;4900944;29;20052;-69
2023/03/11 07:16:10;;;;;;;1.75;0.75;;;1.30;99.90;;;;;;4901223;29;20127;-69
2023/03/11 07:18:36;;;;;;;2.60;0.75;;;1.30;99.90;;;;;;4901034;29;20044;-69
2023/03/11 07:21:04;;;;;;;5.75;0.80;;;1.40;99.90;;;;;;4901210;29;20052;-69
2023/03/11 07:23:30;;;;;;;2.63;0.60;;;1.40;99.90;;;;;;4900477;29;20063;-69
2023/03/11 07:25:55;;;;;;;4.47;0.65;;;1.60;99.90;;;;;;4901153;29;20052;-69
2023/03/11 07:28:22;;;;;;;3.30;0.80;;;1.70;99.90;;;;;;4901158;29;20495;-69
2023/03/11 07:30:49;;;;;;;4.97;0.93;;;1.70;99.90;;;;;;4901132;29;20037;-69
2023/03/11 07:33:15;;;;;;;5.65;0.75;;;1.80;99.90;;;;;;4901674;29;20414;-69
2023/03/11 07:35:41;;;;;;;5.10;1.02;;;1.90;99.90;;;;;;4904710;29;20040;-69
2023/03/11 07:38:07;;;;;;;6.00;1.08;;;1.90;99.90;;;;;;4904624;29;20331;-69
2023/03/11 07:40:33;;;;;;;4.65;1.52;;;2.00;99.90;;;;;;4904547;29;20041;-69
2023/03/11 07:42:59;;;;;;;4.25;0.90;;;2.00;99.90;;;;;;4904528;29;20334;-69
2023/03/11 07:45:24;;;;;;;4.78;1.10;;;2.10;99.90;;;;;;4904387;29;20044;-69
2023/03/11 07:47:50;;;;;;;1.92;0.93;;;2.00;99.90;;;;;;4904433;29;20041;-69
2023/03/11 07:50:16;;;;;;;3.67;1.05;;;2.10;99.90;;;;;;4904365;29;20104;-69
2023/03/11 07:52:43;;;;;;;3.72;0.90;;;2.30;99.90;;;;;;4903956;29;20060;-69
2023/03/11 07:55:09;;;;;;;4.82;0.95;;;2.40;99.90;;;;;;4904055;29;20052;-69
2023/03/11 07:57:34;;;;;;;4.97;0.90;;;2.50;99.90;;;;;;4903943;29;20044;-69
2023/03/11 08:00:00;;;;;;;8.10;0.93;;;2.50;99.90;;;;;;4904218;29;20061;-69
2023/03/11 08:02:26;;;;;;;5.30;1.20;;;2.60;99.90;;;;;;4904182;29;20450;-69
2023/03/11 08:04:52;;;;;;;10.13;1.38;;;2.60;99.90;;;;;;4903787;29;20084;-69
2023/03/11 08:07:19;;;;;;;4.40;1.10;;;2.60;99.90;;;;;;4904067;29;20068;-69
2023/03/11 08:09:45;;;;;;;3.35;1.20;;;2.60;99.90;;;;;;4904033;29;20060;-69
2023/03/11 08:12:11;;;;;;;5.32;1.15;;;2.70;99.90;;;;;;4896896;29;20045;-69
2023/03/11 08:14:38;;;;;;;4.82;1.20;;;2.90;99.90;;;;;;4866370;29;20128;-69
2023/03/11 08:17:04;;;;;;;2.45;0.90;;;2.90;99.90;;;;;;4850000;29;20057;-69
2023/03/11 08:19:30;;;;;;;5.72;0.88;;;3.00;99.90;;;;;;4866627;29;20128;-69
2023/03/11 08:21:56;;;;;;;7.03;1.25;;;3.00;99.90;;;;;;4866231;29;20073;-69
2023/03/11 08:24:21;;;;;;;5.57;0.85;;;3.10;99.90;;;;;;4863743;29;20201;-69
2023/03/11 08:26:47;;;;;;;3.65;0.73;;;3.20;99.90;;;;;;4866464;29;20049;-69
2023/03/11 08:29:13;;;;;;;6.45;0.95;;;3.20;99.90;;;;;;4849756;29;20049;-69
2023/03/11 08:31:38;;;;;;;5.82;1.10;;;3.20;99.90;;;;;;4866108;29;20053;-69
2023/03/11 08:34:09;;;;;;;5.18;1.02;;;3.30;99.90;;;;;;4866344;29;20128;-69
2023/03/11 08:36:35;;;;;;;2.47;1.02;;;3.30;99.90;;;;;;4866254;29;20072;-69
2023/03/11 08:39:01;;;;;;;6.07;1.13;;;3.40;99.90;;;;;;4870654;29;20409;-69
2023/03/11 08:41:27;;;;;;;4.82;1.15;;;3.60;99.90;;;;;;4884517;29;20108;-69
2023/03/11 08:43:53;;;;;;;8.40;1.38;;;3.60;99.90;;;;;;4884666;29;20045;-69
2023/03/11 08:46:39;;;;;;;6.63;1.05;;;3.70;99.90;;;;;;4884719;29;20052;-70
2023/03/11 08:49:05;;;;;;;4.60;0.98;;;3.70;99.90;;;;;;4884357;29;20105;-66
2023/03/11 08:51:32;;;;;;;4.75;1.00;;;3.80;99.90;;;;;;4884294;29;20123;-65
2023/03/11 08:53:59;;;;;;;6.03;1.35;;;3.80;99.90;;;;;;4852117;29;20060;-66
2023/03/11 08:56:25;;;;;;;4.45;1.20;;;4.00;99.90;;;;;;4884326;29;20041;-65
2023/03/11 08:58:50;;;;;;;6.18;1.10;;;3.90;99.90;;;;;;4852434;29;20092;-65
2023/03/11 09:01:17;;;;;;;8.32;1.05;;;3.90;99.90;;;;;;4884474;29;20068;-66
2023/03/11 09:03:43;;;;;;;9.57;1.30;;;3.90;99.90;;;;;;4883898;29;20044;-66
2023/03/11 09:06:14;;;;;;;4.38;1.17;;;3.90;99.90;;;;;;4884337;29;20052;-65
2023/03/11 09:08:40;;;;;;;7.72;1.30;;;4.10;99.90;;;;;;4884419;29;20049;-67
2023/03/11 09:11:06;;;;;;;10.63;1.23;;;4.20;99.90;;;;;;4884263;29;20037;-67
2023/03/11 09:13:31;;;;;;;6.57;1.38;;;4.10;99.90;;;;;;4884235;29;20051;-67
2023/03/11 09:15:58;;;;;;;8.35;1.33;;;4.30;99.90;;;;;;4867311;29;20133;-67
2023/03/11 09:18:23;;;;;;;7.55;1.02;;;4.10;99.90;;;;;;4884137;29;20037;-67
2023/03/11 09:20:49;;;;;;;10.75;1.52;;;3.90;99.90;;;;;;4884091;29;20065;-67
2023/03/11 09:23:16;;;;;;;4.30;0.80;;;4.00;99.90;;;;;;4883092;29;20499;-67
2023/03/11 09:25:42;;;;;;;9.10;1.40;;;3.90;99.90;;;;;;4884087;29;20115;-66
2023/03/11 09:28:08;;;;;;;8.73;1.08;;;4.10;99.90;;;;;;4867167;29;20324;-65
2023/03/11 09:30:34;;;;;;;3.13;1.27;;;4.40;99.90;;;;;;4883981;29;20048;-66
2023/03/11 09:33:00;;;;;;;5.80;1.27;;;4.40;99.90;;;;;;4883893;29;20112;-66
2023/03/11 09:35:26;;;;;;;8.50;1.02;;;4.50;99.90;;;;;;4883869;29;20447;-66
2023/03/11 09:37:51;;;;;;;11.82;1.60;;;4.30;99.90;;;;;;4883784;29;20053;-66
2023/03/11 09:40:24;;;;;;;6.82;1.60;;;4.20;99.90;;;;;;4867275;29;20052;-66
2023/03/11 09:43:08;;;;;;;4.70;1.10;;;4.40;99.90;;;;;;4883735;29;20044;-66
2023/03/11 09:45:39;;;;;;;6.05;1.50;;;4.50;99.90;;;;;;4867180;29;20036;-66
2023/03/11 09:48:11;;;;;;;7.00;1.25;;;4.70;99.90;;;;;;4883691;29;20096;-66
2023/03/11 09:50:52;;;;;;;5.20;1.00;;;4.80;99.90;;;;;;4883621;29;20037;-66
2023/03/11 09:53:41;;;;;;;9.18;1.55;;;4.80;99.90;;;;;;4883349;29;20056;-65
2023/03/11 09:56:10;;;;;;;3.10;1.10;;;4.90;99.90;;;;;;4883117;29;20105;-66
2023/03/11 09:58:42;;;;;;;6.18;1.27;;;5.10;99.90;;;;;;4883438;29;20115;-65
2023/03/11 10:01:38;;;;;;;5.75;1.05;;;4.90;99.90;;;;;;4866930;29;20356;-65
2023/03/11 10:04:13;;;;;;;6.20;1.00;;;4.80;99.90;;;;;;4883841;29;20037;-65
2023/03/11 10:06:41;;;;;;;2.80;1.00;;;4.80;99.90;;;;;;4883081;29;20491;-65
2023/03/11 10:09:47;;;;;;;7.63;1.08;;;4.90;99.90;;;;;;4883292;29;20064;-65
2023/03/11 10:12:27;;;;;;;5.18;1.20;;;5.10;99.90;;;;;;4826113;29;20046;-65
2023/03/11 10:15:30;;;;;;;4.15;1.30;;;5.40;99.90;;;;;;4878482;29;20068;-65
2023/03/11 10:18:03;;;;;;;8.48;1.30;;;6.00;99.90;;;;;;4883160;29;20049;-65
2023/03/11 10:20:37;;;;;;;7.30;1.10;;;6.50;99.90;;;;;;4883200;29;20045;-65
2023/03/11 10:23:28;;;;;;;6.40;1.48;;;6.70;99.90;;;;;;4882522;29;20317;-68
2023/03/11 10:26:20;;;;;;;5.53;1.20;;;7.00;99.90;;;;;;4883175;29;20048;-67
2023/03/11 10:28:52;;;;;;;7.88;2.10;;;6.80;99.90;;;;;;4883086;29;20076;-65
2023/03/11 10:31:35;;;;;;;10.05;1.42;;;6.70;99.90;;;;;;4882892;29;20049;-66
2023/03/11 10:34:09;;;;;;;5.75;1.30;;;6.50;99.90;;;;;;4882997;29;20389;-66
2023/03/11 10:36:50;;;;;;;6.28;1.30;;;6.70;99.90;;;;;;4882953;29;20041;-66
2023/03/11 10:39:16;;;;;;;6.78;1.40;;;6.90;99.90;;;;;;4882695;29;20080;-65
2023/03/11 10:42:15;;;;;;;5.95;1.15;;;6.70;99.90;;;;;;4882887;29;20092;-66
2023/03/11 10:44:42;;;;;;;4.72;1.38;;;6.70;99.90;;;;;;4872364;29;20105;-65
2023/03/11 10:47:21;;;;;;;19.35;1.70;;;6.60;99.90;;;;;;4882886;29;20049;-65
2023/03/11 10:49:51;;;;;;;5.05;1.00;;;6.80;99.90;;;;;;4864600;29;20140;-66
2023/03/11 10:52:18;;;;;;;7.13;1.17;;;6.50;99.90;;;;;;4874152;29;20064;-65
2023/03/11 10:54:46;;;;;;;5.85;1.20;;;6.50;99.90;;;;;;4874391;29;20331;-66
2023/03/11 10:57:28;;;;;;;5.90;1.00;;;6.20;99.90;;;;;;4879012;29;20348;-66
2023/03/11 10:59:55;;;;;;;6.05;1.20;;;6.50;99.90;;;;;;4882734;29;20040;-66
2023/03/11 11:02:24;;;;;;;7.35;1.00;;;6.70;99.90;;;;;;4882409;29;20432;-66
2023/03/11 11:05:05;;;;;;;10.43;1.13;;;7.20;99.90;;;;;;4865884;29;20080;-65
2023/03/11 11:07:34;;;;;;;9.18;1.35;;;7.80;99.90;;;;;;4882739;29;20123;-66
2023/03/11 11:10:17;;;;;;;8.70;1.35;;;8.20;99.90;;;;;;4886049;29;20327;-66
2023/03/11 11:12:59;;;;;;;3.70;1.20;;;8.10;99.90;;;;;;4886378;29;20045;-69
2023/03/11 11:15:57;;;;;;;6.68;1.30;;;8.20;99.90;;;;;;4869581;29;20060;-66
2023/03/11 11:18:26;;;;;;;7.85;1.10;;;8.30;99.90;;;;;;4886297;29;20052;-66
2023/03/11 11:21:01;;;;;;;10.35;1.83;;;8.00;99.90;;;;;;4886261;29;20057;-67
2023/03/11 11:23:42;;;;;;;6.97;1.40;;;8.40;99.90;;;;;;4885742;29;20053;-67
2023/03/11 11:26:21;;;;;;;4.45;1.33;;;8.60;99.90;;;;;;4886170;29;20045;-67
2023/03/11 11:29:09;;;;;;;7.25;1.17;;;8.00;99.90;;;;;;4886124;29;20052;-67
2023/03/11 11:31:43;;;;;;;6.63;1.45;;;8.40;99.90;;;;;;4869568;29;20431;-67
2023/03/11 11:34:31;;;;;;;6.40;1.30;;;8.70;99.90;;;;;;4886017;29;20049;-67
2023/03/11 11:37:00;;;;;;;4.60;1.13;;;8.40;99.90;;;;;;4885978;29;20056;-67
2023/03/11 11:39:31;;;;;;;9.48;1.30;;;7.80;99.90;;;;;;4869133;29;20439;-67
2023/03/11 11:41:58;;;;;;;6.18;1.42;;;7.80;99.90;;;;;;4885594;29;20428;-67
2023/03/11 11:44:32;;;;;;;4.95;1.75;;;7.80;99.90;;;;;;4885801;29;20132;-67
2023/03/11 11:47:16;;;;;;;14.20;1.77;;;7.50;99.90;;;;;;4885556;29;20424;-67
2023/03/11 11:49:50;;;;;;;10.45;2.42;;;7.20;99.90;;;;;;4869329;29;20045;-67
2023/03/11 11:52:21;;;;;;;10.18;1.95;;;7.40;99.90;;;;;;4885595;29;20043;-77
2023/03/11 11:54:51;;;;;;;5.32;1.80;;;7.40;99.90;;;;;;4885704;29;20135;-64
2023/03/11 11:57:20;;;;;;;11.23;1.50;;;7.50;99.90;;;;;;4885327;29;20057;-66
2023/03/11 11:59:46;;;;;;;4.45;1.33;;;7.10;99.90;;;;;;4885601;29;20044;-66
2023/03/11 12:02:15;;;;;;;3.53;1.40;;;6.70;99.90;;;;;;4885528;29;20048;-66
2023/03/11 12:04:43;;;;;;;5.82;1.60;;;7.20;99.90;;;;;;4885405;29;20053;-66
2023/03/11 12:07:21;;;;;;;9.32;1.40;;;7.40;99.90;;;;;;4885461;29;20045;-66
2023/03/11 12:09:56;;;;;;;8.60;1.63;;;7.10;99.90;;;;;;4885150;29;20124;-66
2023/03/11 12:12:35;;;;;;;6.75;1.27;;;7.60;99.90;;;;;;4885420;29;20048;-66
2023/03/11 12:15:18;;;;;;;7.90;1.45;;;8.00;99.90;;;;;;4885386;29;20117;-66
2023/03/11 12:17:47;;;;;;;12.60;1.05;;;8.30;99.90;;;;;;4868618;29;20380;-66
2023/03/11 12:20:17;;;;;;;8.27;1.70;;;8.00;99.90;;;;;;4884856;29;20132;-66
2023/03/11 12:23:09;;;;;;;3.20;1.10;;;8.50;99.90;;;;;;4884795;29;20128;-66
2023/03/11 12:25:43;;;;;;;5.80;1.17;;;8.90;99.90;;;;;;4884776;29;20483;-67
2023/03/11 12:28:38;;;;;;;7.43;1.13;;;8.70;99.90;;;;;;4899449;29;20056;-68
2023/03/11 12:31:08;;;;;;;7.18;1.05;;;8.80;99.90;;;;;;4885035;29;20120;-66
2023/03/11 12:33:42;;;;;;;7.75;0.90;;;8.60;99.90;;;;;;4885019;29;20176;-66
2023/03/11 12:36:20;;;;;;;5.38;0.90;;;8.30;99.90;;;;;;4884928;29;20044;-66
2023/03/11 12:38:46;;;;;;;7.28;0.90;;;8.30;99.90;;;;;;4884879;29;20309;-68
2023/03/11 12:41:15;;;;;;;3.78;0.93;;;7.80;99.90;;;;;;4884848;29;20045;-68
2023/03/11 12:43:41;;;;;;;6.65;1.00;;;7.80;99.90;;;;;;4884729;29;20056;-68
2023/03/11 12:46:08;;;;;;;5.32;0.75;;;7.70;99.90;;;;;;4884735;29;20045;-68
2023/03/11 12:48:44;;;;;;;5.43;0.65;;;8.00;99.90;;;;;;4884714;29;20040;-70
2023/03/11 12:51:25;;;;;;;6.75;0.80;;;8.10;99.90;;;;;;4884730;29;20045;-66
2023/03/11 12:53:51;;;;;;;5.95;0.85;;;8.40;99.90;;;;;;4884232;29;20053;-66
2023/03/11 12:56:39;;;;;;;6.53;0.85;;;8.40;99.90;;;;;;4884529;29;20049;-66
2023/03/11 12:59:32;;;;;;;4.72;0.68;;;8.20;99.90;;;;;;4884623;29;20052;-66
2023/03/11 13:02:35;;;;;;;6.30;0.80;;;8.40;99.90;;;;;;4884539;29;20045;-66
2023/03/11 13:05:29;;;;;;;3.90;0.85;;;8.60;99.90;;;;;;4884336;29;20128;-66
2023/03/11 13:08:23;;;;;;;5.68;0.65;;;8.30;99.90;;;;;;4884348;29;20304;-66